sensor_id;sensor_type;location;lat;lon;timestamp;pressure;altitude;pressure_sealevel;temperature;humidity
19508;BME280;40157;42.566;27.526;2023-04-05T00:01:12;100151.56;;;5.89;88.00
19508;BME280;40157;42.566;27.526;2023-04-05T00:03:13;100205.22;;;6.17;87.32
19508;BME280;40157;42.566;27.526;2023-04-05T00:05:13;100200.50;;;6.02;87.50
19508;BME280;40157;42.566;27.526;2023-04-05T00:07:14;100204.13;;;6.09;88.01
19508;BME280;40157;42.566;27.526;2023-04-05T00:09:17;100217.53;;;6.23;88.15
19508;BME280;40157;42.566;27.526;2023-04-05T00:11:18;100232.44;;;6.30;88.05
19508;BME280;40157;42.566;27.526;2023-04-05T00:13:20;100218.00;;;6.08;87.22
19508;BME280;40157;42.566;27.526;2023-04-05T00:15:21;100208.03;;;5.93;87.99
19508;BME280;40157;42.566;27.526;2023-04-05T00:17:21;100238.19;;;6.17;88.35
19508;BME280;40157;42.566;27.526;2023-04-05T00:19:22;100150.56;;;5.84;88.24
19508;BME280;40157;42.566;27.526;2023-04-05T00:21:24;100178.09;;;5.75;87.84
19508;BME280;40157;42.566;27.526;2023-04-05T00:23:24;100116.47;;;5.40;88.32
19508;BME280;40157;42.566;27.526;2023-04-05T00:25:25;100142.88;;;5.55;88.34
19508;BME280;40157;42.566;27.526;2023-04-05T00:27:26;100235.81;;;5.94;87.81
19508;BME280;40157;42.566;27.526;2023-04-05T00:29:27;100248.09;;;5.98;87.78
19508;BME280;40157;42.566;27.526;2023-04-05T00:31:28;100244.28;;;5.87;87.90
19508;BME280;40157;42.566;27.526;2023-04-05T00:33:28;100243.06;;;5.74;89.16
19508;BME280;40157;42.566;27.526;2023-04-05T00:35:29;100152.28;;;5.50;89.67
19508;BME280;40157;42.566;27.526;2023-04-05T00:37:29;100212.06;;;5.82;88.96
19508;BME280;40157;42.566;27.526;2023-04-05T00:39:30;100163.69;;;5.55;88.98
19508;BME280;40157;42.566;27.526;2023-04-05T00:41:31;100248.19;;;6.01;88.82
19508;BME280;40157;42.566;27.526;2023-04-05T00:43:31;100196.84;;;5.64;88.40
19508;BME280;40157;42.566;27.526;2023-04-05T00:45:32;100175.72;;;5.51;88.20
19508;BME280;40157;42.566;27.526;2023-04-05T00:47:33;100251.19;;;5.85;88.22
19508;BME280;40157;42.566;27.526;2023-04-05T00:49:36;100244.19;;;5.84;87.94
19508;BME280;40157;42.566;27.526;2023-04-05T00:51:37;100253.09;;;5.92;88.16
19508;BME280;40157;42.566;27.526;2023-04-05T00:53:39;100254.59;;;5.84;87.79
19508;BME280;40157;42.566;27.526;2023-04-05T00:55:40;100153.41;;;5.29;87.67
19508;BME280;40157;42.566;27.526;2023-04-05T00:57:41;100229.63;;;5.90;87.86
19508;BME280;40157;42.566;27.526;2023-04-05T00:59:41;100199.06;;;5.82;87.55
19508;BME280;40157;42.566;27.526;2023-04-05T01:01:41;100211.69;;;5.98;87.07
19508;BME280;40157;42.566;27.526;2023-04-05T01:03:47;100257.56;;;6.28;86.82
19508;BME280;40157;42.566;27.526;2023-04-05T01:05:54;100268.84;;;6.28;86.13
19508;BME280;40157;42.566;27.526;2023-04-05T01:08:21;100246.97;;;6.22;85.16
19508;BME280;40157;42.566;27.526;2023-04-05T01:10:30;100265.06;;;6.17;84.65
19508;BME280;40157;42.566;27.526;2023-04-05T01:12:35;100238.28;;;5.89;84.01
19508;BME280;40157;42.566;27.526;2023-04-05T01:14:47;100274.44;;;6.10;83.75
19508;BME280;40157;42.566;27.526;2023-04-05T01:16:49;100255.41;;;5.81;84.30
19508;BME280;40157;42.566;27.526;2023-04-05T01:18:50;100235.31;;;5.75;84.66
19508;BME280;40157;42.566;27.526;2023-04-05T01:23:40;100217.41;;;5.56;85.31
19508;BME280;40157;42.566;27.526;2023-04-05T01:30:35;100267.03;;;5.94;87.36
19508;BME280;40157;42.566;27.526;2023-04-05T01:32:58;100255.69;;;5.92;86.73
19508;BME280;40157;42.566;27.526;2023-04-05T01:37:14;100217.97;;;5.74;86.61
19508;BME280;40157;42.566;27.526;2023-04-05T01:39:19;100258.91;;;6.14;86.95
19508;BME280;40157;42.566;27.526;2023-04-05T01:41:21;100214.75;;;5.85;86.32
19508;BME280;40157;42.566;27.526;2023-04-05T01:43:21;100239.78;;;6.11;85.51
19508;BME280;40157;42.566;27.526;2023-04-05T01:45:22;100272.09;;;6.20;84.77
19508;BME280;40157;42.566;27.526;2023-04-05T01:47:22;100254.41;;;6.06;84.50
19508;BME280;40157;42.566;27.526;2023-04-05T01:49:23;100271.47;;;5.97;84.52
19508;BME280;40157;42.566;27.526;2023-04-05T01:51:23;100255.94;;;6.00;84.64
19508;BME280;40157;42.566;27.526;2023-04-05T01:53:24;100270.19;;;6.14;84.69
19508;BME280;40157;42.566;27.526;2023-04-05T01:55:25;100277.34;;;6.21;84.50
19508;BME280;40157;42.566;27.526;2023-04-05T01:57:25;100286.72;;;6.15;84.39
19508;BME280;40157;42.566;27.526;2023-04-05T01:59:26;100280.72;;;6.19;84.27
19508;BME280;40157;42.566;27.526;2023-04-05T02:01:26;100241.31;;;6.03;84.38
19508;BME280;40157;42.566;27.526;2023-04-05T02:03:26;100294.16;;;6.34;84.20
19508;BME280;40157;42.566;27.526;2023-04-05T02:05:27;100302.63;;;6.27;83.95
19508;BME280;40157;42.566;27.526;2023-04-05T02:07:27;100263.84;;;6.04;83.67
19508;BME280;40157;42.566;27.526;2023-04-05T02:09:28;100290.53;;;6.29;83.50
19508;BME280;40157;42.566;27.526;2023-04-05T02:11:28;100268.69;;;6.22;83.99
19508;BME280;40157;42.566;27.526;2023-04-05T02:13:29;100294.41;;;6.43;83.79
19508;BME280;40157;42.566;27.526;2023-04-05T02:15:29;100299.44;;;6.37;83.01
19508;BME280;40157;42.566;27.526;2023-04-05T02:17:30;100247.41;;;6.05;83.19
19508;BME280;40157;42.566;27.526;2023-04-05T02:19:33;100234.16;;;5.96;83.40
19508;BME280;40157;42.566;27.526;2023-04-05T02:21:39;100238.16;;;5.85;83.58
19508;BME280;40157;42.566;27.526;2023-04-05T02:23:40;100309.84;;;6.37;83.93
19508;BME280;40157;42.566;27.526;2023-04-05T02:25:40;100323.72;;;6.36;84.31
19508;BME280;40157;42.566;27.526;2023-04-05T02:27:41;100295.59;;;6.23;84.22
19508;BME280;40157;42.566;27.526;2023-04-05T02:29:41;100314.81;;;6.28;84.04
19508;BME280;40157;42.566;27.526;2023-04-05T02:31:41;100312.66;;;6.11;83.44
19508;BME280;40157;42.566;27.526;2023-04-05T02:33:42;100241.00;;;5.62;83.77
19508;BME280;40157;42.566;27.526;2023-04-05T02:35:42;100331.97;;;6.20;83.68
19508;BME280;40157;42.566;27.526;2023-04-05T02:37:43;100300.47;;;6.10;83.60
19508;BME280;40157;42.566;27.526;2023-04-05T02:39:52;100354.38;;;6.15;83.49
19508;BME280;40157;42.566;27.526;2023-04-05T02:41:56;100309.78;;;6.02;83.50
19508;BME280;40157;42.566;27.526;2023-04-05T02:43:56;100350.09;;;6.17;83.30
19508;BME280;40157;42.566;27.526;2023-04-05T02:45:58;100343.25;;;6.20;83.67
19508;BME280;40157;42.566;27.526;2023-04-05T02:47:58;100306.03;;;5.94;83.31
19508;BME280;40157;42.566;27.526;2023-04-05T02:49:59;100330.00;;;5.82;82.90
19508;BME280;40157;42.566;27.526;2023-04-05T02:51:59;100340.69;;;5.91;83.03
19508;BME280;40157;42.566;27.526;2023-04-05T02:54:01;100342.47;;;5.94;83.25
19508;BME280;40157;42.566;27.526;2023-04-05T02:56:02;100351.59;;;6.08;83.39
19508;BME280;40157;42.566;27.526;2023-04-05T02:58:02;100363.97;;;6.17;83.57
19508;BME280;40157;42.566;27.526;2023-04-05T03:00:03;100365.91;;;6.24;82.96
19508;BME280;40157;42.566;27.526;2023-04-05T03:02:05;100348.34;;;6.17;82.67
19508;BME280;40157;42.566;27.526;2023-04-05T03:04:05;100355.34;;;6.18;83.04
19508;BME280;40157;42.566;27.526;2023-04-05T03:06:06;100343.00;;;6.13;82.62
19508;BME280;40157;42.566;27.526;2023-04-05T03:08:09;100354.00;;;6.02;82.88
19508;BME280;40157;42.566;27.526;2023-04-05T03:10:21;100343.75;;;6.07;82.80
19508;BME280;40157;42.566;27.526;2023-04-05T03:12:21;100369.91;;;6.11;82.45
19508;BME280;40157;42.566;27.526;2023-04-05T03:14:22;100360.84;;;5.99;82.39
19508;BME280;40157;42.566;27.526;2023-04-05T03:16:22;100378.63;;;6.14;83.44
19508;BME280;40157;42.566;27.526;2023-04-05T03:18:22;100348.84;;;6.04;83.44
19508;BME280;40157;42.566;27.526;2023-04-05T03:20:25;100385.75;;;6.21;83.47
19508;BME280;40157;42.566;27.526;2023-04-05T03:22:26;100384.97;;;6.23;83.25
19508;BME280;40157;42.566;27.526;2023-04-05T03:24:26;100372.00;;;6.25;82.96
19508;BME280;40157;42.566;27.526;2023-04-05T03:26:27;100366.88;;;6.28;82.32
19508;BME280;40157;42.566;27.526;2023-04-05T03:28:31;100365.13;;;6.27;81.92
19508;BME280;40157;42.566;27.526;2023-04-05T03:30:32;100403.94;;;6.50;81.92
19508;BME280;40157;42.566;27.526;2023-04-05T03:32:35;100381.31;;;6.48;81.49
19508;BME280;40157;42.566;27.526;2023-04-05T03:34:39;100401.28;;;6.48;81.03
19508;BME280;40157;42.566;27.526;2023-04-05T03:36:40;100395.09;;;6.44;80.85
19508;BME280;40157;42.566;27.526;2023-04-05T03:38:45;100403.25;;;6.57;81.07
19508;BME280;40157;42.566;27.526;2023-04-05T03:40:49;100341.09;;;6.37;80.95
19508;BME280;40157;42.566;27.526;2023-04-05T03:42:52;100382.94;;;6.77;80.40
19508;BME280;40157;42.566;27.526;2023-04-05T03:44:53;100390.78;;;6.78;80.47
19508;BME280;40157;42.566;27.526;2023-04-05T03:46:54;100377.91;;;6.83;80.53
19508;BME280;40157;42.566;27.526;2023-04-05T03:48:56;100400.69;;;6.92;80.22
19508;BME280;40157;42.566;27.526;2023-04-05T03:50:57;100396.22;;;6.88;80.10
19508;BME280;40157;42.566;27.526;2023-04-05T03:52:57;100394.41;;;6.83;79.91
19508;BME280;40157;42.566;27.526;2023-04-05T03:54:58;100370.53;;;6.66;79.22
19508;BME280;40157;42.566;27.526;2023-04-05T03:56:58;100387.22;;;6.75;79.45
19508;BME280;40157;42.566;27.526;2023-04-05T03:58:59;100405.44;;;6.73;80.02
19508;BME280;40157;42.566;27.526;2023-04-05T04:00:59;100417.19;;;6.59;80.29
19508;BME280;40157;42.566;27.526;2023-04-05T04:03:00;100400.38;;;6.47;80.56
19508;BME280;40157;42.566;27.526;2023-04-05T04:05:01;100428.75;;;6.69;80.73
19508;BME280;40157;42.566;27.526;2023-04-05T04:07:01;100395.94;;;6.43;80.92
19508;BME280;40157;42.566;27.526;2023-04-05T04:09:02;100400.97;;;6.37;80.71
19508;BME280;40157;42.566;27.526;2023-04-05T04:11:04;100450.00;;;6.52;80.69
19508;BME280;40157;42.566;27.526;2023-04-05T04:13:05;100388.25;;;6.16;80.57
19508;BME280;40157;42.566;27.526;2023-04-05T04:15:06;100457.03;;;6.87;87.40
19508;BME280;40157;42.566;27.526;2023-04-05T04:17:07;100449.56;;;7.00;87.24
19508;BME280;40157;42.566;27.526;2023-04-05T04:19:07;100434.22;;;6.79;84.23
19508;BME280;40157;42.566;27.526;2023-04-05T04:21:07;100435.34;;;6.89;84.78
19508;BME280;40157;42.566;27.526;2023-04-05T04:23:09;100448.16;;;7.13;84.78
19508;BME280;40157;42.566;27.526;2023-04-05T04:25:11;100463.63;;;7.42;84.10
19508;BME280;40157;42.566;27.526;2023-04-05T04:27:11;100471.00;;;7.58;82.93
19508;BME280;40157;42.566;27.526;2023-04-05T04:29:12;100446.59;;;7.56;81.47
19508;BME280;40157;42.566;27.526;2023-04-05T04:31:15;100455.78;;;7.77;80.68
19508;BME280;40157;42.566;27.526;2023-04-05T04:33:15;100474.00;;;7.75;78.52
19508;BME280;40157;42.566;27.526;2023-04-05T04:35:18;100425.00;;;7.62;78.21
19508;BME280;40157;42.566;27.526;2023-04-05T04:37:19;100455.84;;;7.80;78.43
19508;BME280;40157;42.566;27.526;2023-04-05T04:39:22;100456.06;;;7.89;78.47
19508;BME280;40157;42.566;27.526;2023-04-05T04:41:25;100463.75;;;7.83;77.03
19508;BME280;40157;42.566;27.526;2023-04-05T04:43:26;100470.56;;;7.76;76.30
19508;BME280;40157;42.566;27.526;2023-04-05T04:45:27;100480.16;;;7.79;76.59
19508;BME280;40157;42.566;27.526;2023-04-05T04:47:28;100482.88;;;7.84;76.89
19508;BME280;40157;42.566;27.526;2023-04-05T04:49:29;100473.63;;;7.96;76.42
19508;BME280;40157;42.566;27.526;2023-04-05T04:51:31;100505.31;;;8.13;76.25
19508;BME280;40157;42.566;27.526;2023-04-05T04:53:32;100508.47;;;7.99;74.96
19508;BME280;40157;42.566;27.526;2023-04-05T04:55:32;100510.31;;;8.03;74.76
19508;BME280;40157;42.566;27.526;2023-04-05T04:57:32;100458.28;;;7.72;75.21
19508;BME280;40157;42.566;27.526;2023-04-05T04:59:33;100477.34;;;7.70;75.12
19508;BME280;40157;42.566;27.526;2023-04-05T05:01:33;100501.63;;;7.67;74.86
19508;BME280;40157;42.566;27.526;2023-04-05T05:03:34;100519.22;;;7.76;74.75
19508;BME280;40157;42.566;27.526;2023-04-05T05:05:47;100525.72;;;7.92;75.29
19508;BME280;40157;42.566;27.526;2023-04-05T05:07:48;100519.78;;;7.99;74.73
19508;BME280;40157;42.566;27.526;2023-04-05T05:09:49;100504.56;;;7.80;74.87
19508;BME280;40157;42.566;27.526;2023-04-05T05:11:51;100477.47;;;7.76;75.27
19508;BME280;40157;42.566;27.526;2023-04-05T05:13:52;100459.78;;;7.61;75.12
19508;BME280;40157;42.566;27.526;2023-04-05T05:15:52;100517.34;;;8.07;75.69
19508;BME280;40157;42.566;27.526;2023-04-05T05:17:52;100516.56;;;8.09;75.30
19508;BME280;40157;42.566;27.526;2023-04-05T05:19:57;100505.09;;;8.04;75.53
19508;BME280;40157;42.566;27.526;2023-04-05T05:21:59;100520.97;;;8.12;75.45
19508;BME280;40157;42.566;27.526;2023-04-05T05:23:59;100501.69;;;8.07;75.69
19508;BME280;40157;42.566;27.526;2023-04-05T05:26:00;100510.59;;;8.15;75.39
19508;BME280;40157;42.566;27.526;2023-04-05T05:28:00;100510.84;;;8.27;75.50
19508;BME280;40157;42.566;27.526;2023-04-05T05:30:01;100514.44;;;8.32;74.84
19508;BME280;40157;42.566;27.526;2023-04-05T05:32:01;100536.41;;;8.42;74.99
19508;BME280;40157;42.566;27.526;2023-04-05T05:34:02;100498.66;;;8.26;75.09
19508;BME280;40157;42.566;27.526;2023-04-05T05:36:03;100534.81;;;8.47;74.56
19508;BME280;40157;42.566;27.526;2023-04-05T05:38:03;100526.94;;;8.46;74.82
19508;BME280;40157;42.566;27.526;2023-04-05T05:40:04;100515.84;;;8.55;74.71
19508;BME280;40157;42.566;27.526;2023-04-05T05:42:05;100543.16;;;8.70;75.09
19508;BME280;40157;42.566;27.526;2023-04-05T05:44:06;100527.41;;;8.67;74.42
19508;BME280;40157;42.566;27.526;2023-04-05T05:46:06;100522.38;;;8.77;74.25
19508;BME280;40157;42.566;27.526;2023-04-05T05:48:07;100510.03;;;8.69;73.98
19508;BME280;40157;42.566;27.526;2023-04-05T05:50:07;100534.78;;;8.87;73.58
19508;BME280;40157;42.566;27.526;2023-04-05T05:52:09;100511.91;;;8.77;73.77
19508;BME280;40157;42.566;27.526;2023-04-05T05:54:09;100538.19;;;8.83;73.54
19508;BME280;40157;42.566;27.526;2023-04-05T05:56:10;100538.28;;;8.89;73.20
19508;BME280;40157;42.566;27.526;2023-04-05T05:58:10;100541.16;;;9.01;72.87
19508;BME280;40157;42.566;27.526;2023-04-05T06:00:11;100560.47;;;9.08;72.69
19508;BME280;40157;42.566;27.526;2023-04-05T06:02:12;100552.75;;;9.16;72.53
19508;BME280;40157;42.566;27.526;2023-04-05T06:04:13;100548.47;;;9.18;72.56
19508;BME280;40157;42.566;27.526;2023-04-05T06:06:13;100538.78;;;9.14;72.64
19508;BME280;40157;42.566;27.526;2023-04-05T06:08:14;100567.75;;;9.24;72.18
19508;BME280;40157;42.566;27.526;2023-04-05T06:10:14;100537.13;;;9.19;72.20
19508;BME280;40157;42.566;27.526;2023-04-05T06:12:14;100546.69;;;9.17;72.00
19508;BME280;40157;42.566;27.526;2023-04-05T06:14:15;100564.53;;;9.38;71.90
19508;BME280;40157;42.566;27.526;2023-04-05T06:16:15;100493.19;;;8.99;71.94
19508;BME280;40157;42.566;27.526;2023-04-05T06:18:16;100574.34;;;9.51;72.48
19508;BME280;40157;42.566;27.526;2023-04-05T06:20:16;100569.19;;;9.54;71.89
19508;BME280;40157;42.566;27.526;2023-04-05T06:22:17;100576.25;;;9.60;71.83
19508;BME280;40157;42.566;27.526;2023-04-05T06:24:17;100571.81;;;9.54;71.57
19508;BME280;40157;42.566;27.526;2023-04-05T06:26:19;100550.88;;;9.54;71.71
19508;BME280;40157;42.566;27.526;2023-04-05T06:28:22;100553.50;;;9.57;72.10
19508;BME280;40157;42.566;27.526;2023-04-05T06:30:22;100569.50;;;9.73;72.24
19508;BME280;40157;42.566;27.526;2023-04-05T06:32:22;100568.66;;;9.75;72.39
19508;BME280;40157;42.566;27.526;2023-04-05T06:34:23;100556.31;;;9.68;72.25
19508;BME280;40157;42.566;27.526;2023-04-05T06:36:23;100556.25;;;9.63;72.00
19508;BME280;40157;42.566;27.526;2023-04-05T06:38:24;100573.03;;;9.76;72.00
19508;BME280;40157;42.566;27.526;2023-04-05T06:40:24;100571.50;;;9.88;71.30
19508;BME280;40157;42.566;27.526;2023-04-05T06:42:25;100493.84;;;9.36;71.37
19508;BME280;40157;42.566;27.526;2023-04-05T06:44:25;100570.44;;;9.76;71.33
19508;BME280;40157;42.566;27.526;2023-04-05T06:46:26;100598.34;;;9.76;70.68
19508;BME280;40157;42.566;27.526;2023-04-05T06:48:27;100602.63;;;9.72;70.20
19508;BME280;40157;42.566;27.526;2023-04-05T06:50:28;100583.31;;;9.66;70.87
19508;BME280;40157;42.566;27.526;2023-04-05T06:52:29;100593.88;;;9.70;70.07
19508;BME280;40157;42.566;27.526;2023-04-05T06:54:29;100591.19;;;9.67;70.72
19508;BME280;40157;42.566;27.526;2023-04-05T06:56:29;100585.94;;;9.66;70.75
19508;BME280;40157;42.566;27.526;2023-04-05T06:58:30;100563.91;;;9.53;71.50
19508;BME280;40157;42.566;27.526;2023-04-05T07:00:30;100582.44;;;9.65;71.83
19508;BME280;40157;42.566;27.526;2023-04-05T07:02:31;100578.88;;;9.60;71.83
19508;BME280;40157;42.566;27.526;2023-04-05T07:04:31;100591.25;;;9.70;72.14
19508;BME280;40157;42.566;27.526;2023-04-05T07:06:36;100568.44;;;9.61;72.62
19508;BME280;40157;42.566;27.526;2023-04-05T07:08:38;100595.72;;;9.74;72.49
19508;BME280;40157;42.566;27.526;2023-04-05T07:10:38;100527.13;;;9.45;72.80
19508;BME280;40157;42.566;27.526;2023-04-05T07:12:40;100556.13;;;9.57;72.80
19508;BME280;40157;42.566;27.526;2023-04-05T07:14:40;100548.22;;;9.53;72.02
19508;BME280;40157;42.566;27.526;2023-04-05T07:16:41;100556.78;;;9.45;71.14
19508;BME280;40157;42.566;27.526;2023-04-05T07:18:41;100610.53;;;9.75;71.98
19508;BME280;40157;42.566;27.526;2023-04-05T07:20:45;100554.25;;;9.50;72.08
19508;BME280;40157;42.566;27.526;2023-04-05T07:22:46;100570.88;;;9.52;71.67
19508;BME280;40157;42.566;27.526;2023-04-05T07:24:46;100606.06;;;9.68;72.35
19508;BME280;40157;42.566;27.526;2023-04-05T07:26:47;100604.84;;;9.51;73.32
19508;BME280;40157;42.566;27.526;2023-04-05T07:28:48;100604.63;;;9.38;73.23
19508;BME280;40157;42.566;27.526;2023-04-05T07:30:48;100599.22;;;9.28;73.51
19508;BME280;40157;42.566;27.526;2023-04-05T07:32:49;100614.88;;;9.26;73.92
19508;BME280;40157;42.566;27.526;2023-04-05T07:34:49;100612.25;;;9.26;74.68
19508;BME280;40157;42.566;27.526;2023-04-05T07:36:50;100557.47;;;8.88;74.45
19508;BME280;40157;42.566;27.526;2023-04-05T07:38:51;100621.78;;;9.24;75.04
19508;BME280;40157;42.566;27.526;2023-04-05T07:40:51;100597.06;;;9.06;75.10
19508;BME280;40157;42.566;27.526;2023-04-05T07:42:52;100502.53;;;8.44;75.21
19508;BME280;40157;42.566;27.526;2023-04-05T07:44:53;100586.16;;;8.85;74.49
19508;BME280;40157;42.566;27.526;2023-04-05T07:46:53;100609.03;;;8.97;74.98
19508;BME280;40157;42.566;27.526;2023-04-05T07:48:54;100620.69;;;9.11;74.96
19508;BME280;40157;42.566;27.526;2023-04-05T07:50:54;100624.97;;;9.09;75.79
19508;BME280;40157;42.566;27.526;2023-04-05T07:52:55;100617.16;;;9.11;76.03
19508;BME280;40157;42.566;27.526;2023-04-05T07:54:55;100627.63;;;9.11;75.11
19508;BME280;40157;42.566;27.526;2023-04-05T07:56:55;100607.25;;;8.93;74.93
19508;BME280;40157;42.566;27.526;2023-04-05T07:58:57;100624.78;;;8.98;74.66
19508;BME280;40157;42.566;27.526;2023-04-05T08:01:02;100611.63;;;8.95;74.85
19508;BME280;40157;42.566;27.526;2023-04-05T08:03:03;100627.47;;;9.01;74.92
19508;BME280;40157;42.566;27.526;2023-04-05T08:05:04;100627.31;;;8.95;74.97
19508;BME280;40157;42.566;27.526;2023-04-05T08:07:05;100628.28;;;9.00;75.35
19508;BME280;40157;42.566;27.526;2023-04-05T08:09:05;100629.16;;;8.99;74.49
19508;BME280;40157;42.566;27.526;2023-04-05T08:11:08;100551.63;;;8.59;75.00
19508;BME280;40157;42.566;27.526;2023-04-05T08:13:08;100550.16;;;8.72;75.72
19508;BME280;40157;42.566;27.526;2023-04-05T08:15:09;100639.09;;;9.17;75.63
19508;BME280;40157;42.566;27.526;2023-04-05T08:17:10;100627.81;;;9.20;75.11
19508;BME280;40157;42.566;27.526;2023-04-05T08:19:10;100558.38;;;8.90;74.79
19508;BME280;40157;42.566;27.526;2023-04-05T08:21:11;100630.78;;;9.37;74.54
19508;BME280;40157;42.566;27.526;2023-04-05T08:23:11;100637.78;;;9.38;74.17
19508;BME280;40157;42.566;27.526;2023-04-05T08:25:11;100631.72;;;9.40;74.08
19508;BME280;40157;42.566;27.526;2023-04-05T08:27:12;100636.16;;;9.44;73.95
19508;BME280;40157;42.566;27.526;2023-04-05T08:29:12;100554.03;;;8.92;72.96
19508;BME280;40157;42.566;27.526;2023-04-05T08:31:13;100539.16;;;8.88;72.73
19508;BME280;40157;42.566;27.526;2023-04-05T08:33:13;100609.69;;;9.29;72.86
19508;BME280;40157;42.566;27.526;2023-04-05T08:35:14;100521.50;;;8.76;72.08
19508;BME280;40157;42.566;27.526;2023-04-05T08:37:15;100632.72;;;9.47;72.75
19508;BME280;40157;42.566;27.526;2023-04-05T08:39:15;100630.91;;;9.43;72.21
19508;BME280;40157;42.566;27.526;2023-04-05T08:41:22;100610.72;;;9.37;72.40
19508;BME280;40157;42.566;27.526;2023-04-05T08:43:46;100601.91;;;9.32;72.55
19508;BME280;40157;42.566;27.526;2023-04-05T08:45:52;100603.81;;;9.42;72.88
19508;BME280;40157;42.566;27.526;2023-04-05T08:47:53;100579.91;;;9.22;72.60
19508;BME280;40157;42.566;27.526;2023-04-05T08:49:53;100617.19;;;9.56;72.30
19508;BME280;40157;42.566;27.526;2023-04-05T08:51:54;100618.25;;;9.66;72.18
19508;BME280;40157;42.566;27.526;2023-04-05T08:53:54;100613.91;;;9.68;72.41
19508;BME280;40157;42.566;27.526;2023-04-05T08:55:56;100630.63;;;9.76;71.56
19508;BME280;40157;42.566;27.526;2023-04-05T08:57:57;100621.97;;;9.80;71.55
19508;BME280;40157;42.566;27.526;2023-04-05T09:00:00;100635.34;;;9.97;71.35
19508;BME280;40157;42.566;27.526;2023-04-05T09:02:07;100646.63;;;9.93;71.22
19508;BME280;40157;42.566;27.526;2023-04-05T09:04:15;100630.00;;;9.90;72.26
19508;BME280;40157;42.566;27.526;2023-04-05T09:06:16;100573.88;;;9.75;72.54
19508;BME280;40157;42.566;27.526;2023-04-05T09:08:18;100616.25;;;10.03;72.25
19508;BME280;40157;42.566;27.526;2023-04-05T09:10:20;100616.38;;;10.09;72.63
19508;BME280;40157;42.566;27.526;2023-04-05T09:12:22;100550.44;;;9.81;72.69
19508;BME280;40157;42.566;27.526;2023-04-05T09:14:24;100634.06;;;10.26;72.66
19508;BME280;40157;42.566;27.526;2023-04-05T09:16:25;100649.03;;;10.31;71.61
19508;BME280;40157;42.566;27.526;2023-04-05T09:18:26;100591.59;;;9.90;69.87
19508;BME280;40157;42.566;27.526;2023-04-05T09:20:26;100598.56;;;9.88;69.54
19508;BME280;40157;42.566;27.526;2023-04-05T09:22:27;100606.53;;;9.96;69.64
19508;BME280;40157;42.566;27.526;2023-04-05T09:24:35;100657.78;;;10.32;69.98
19508;BME280;40157;42.566;27.526;2023-04-05T09:26:38;100661.38;;;10.37;69.94
19508;BME280;40157;42.566;27.526;2023-04-05T09:28:40;100603.28;;;10.09;70.25
19508;BME280;40157;42.566;27.526;2023-04-05T09:30:45;100649.25;;;10.44;70.14
19508;BME280;40157;42.566;27.526;2023-04-05T09:32:46;100652.84;;;10.50;69.99
19508;BME280;40157;42.566;27.526;2023-04-05T09:34:47;100648.53;;;10.55;70.56
19508;BME280;40157;42.566;27.526;2023-04-05T09:36:48;100603.44;;;10.22;69.93
19508;BME280;40157;42.566;27.526;2023-04-05T09:38:48;100661.81;;;10.65;70.12
19508;BME280;40157;42.566;27.526;2023-04-05T09:40:49;100631.91;;;10.53;70.14
19508;BME280;40157;42.566;27.526;2023-04-05T09:42:51;100648.63;;;10.62;70.40
19508;BME280;40157;42.566;27.526;2023-04-05T09:44:58;100659.31;;;10.72;70.20
19508;BME280;40157;42.566;27.526;2023-04-05T09:47:16;100617.97;;;10.54;70.67
19508;BME280;40157;42.566;27.526;2023-04-05T09:49:30;100649.69;;;10.73;70.68
19508;BME280;40157;42.566;27.526;2023-04-05T09:51:36;100640.22;;;10.84;70.40
19508;BME280;40157;42.566;27.526;2023-04-05T09:53:55;100656.13;;;10.97;70.77
19508;BME280;40157;42.566;27.526;2023-04-05T09:56:07;100657.81;;;10.93;69.45
19508;BME280;40157;42.566;27.526;2023-04-05T09:58:12;100664.00;;;10.97;68.38
19508;BME280;40157;42.566;27.526;2023-04-05T10:00:17;100662.31;;;11.02;68.54
19508;BME280;40157;42.566;27.526;2023-04-05T10:02:20;100604.22;;;10.71;68.41
19508;BME280;40157;42.566;27.526;2023-04-05T10:04:23;100663.19;;;11.04;68.17
19508;BME280;40157;42.566;27.526;2023-04-05T10:06:23;100644.63;;;10.87;68.03
19508;BME280;40157;42.566;27.526;2023-04-05T10:08:33;100665.91;;;11.10;67.37
19508;BME280;40157;42.566;27.526;2023-04-05T10:10:37;100657.94;;;11.04;66.75
19508;BME280;40157;42.566;27.526;2023-04-05T10:12:45;100672.94;;;11.11;66.92
19508;BME280;40157;42.566;27.526;2023-04-05T10:14:46;100607.81;;;10.79;67.36
19508;BME280;40157;42.566;27.526;2023-04-05T10:17:05;100669.50;;;11.17;66.39
19508;BME280;40157;42.566;27.526;2023-04-05T10:19:21;100657.22;;;11.14;65.92
19508;BME280;40157;42.566;27.526;2023-04-05T10:21:32;100656.34;;;11.14;65.45
19508;BME280;40157;42.566;27.526;2023-04-05T10:23:35;100671.31;;;11.22;65.67
19508;BME280;40157;42.566;27.526;2023-04-05T10:28:02;100664.31;;;11.21;65.71
19508;BME280;40157;42.566;27.526;2023-04-05T10:30:07;100667.06;;;11.32;66.17
19508;BME280;40157;42.566;27.526;2023-04-05T10:32:29;100584.22;;;10.81;64.95
19508;BME280;40157;42.566;27.526;2023-04-05T10:35:03;100675.81;;;11.31;64.80
19508;BME280;40157;42.566;27.526;2023-04-05T10:37:11;100681.09;;;11.36;64.91
19508;BME280;40157;42.566;27.526;2023-04-05T10:41:41;100673.31;;;11.42;64.69
19508;BME280;40157;42.566;27.526;2023-04-05T10:43:48;100638.13;;;11.24;65.01
19508;BME280;40157;42.566;27.526;2023-04-05T10:45:52;100624.94;;;11.21;65.04
19508;BME280;40157;42.566;27.526;2023-04-05T10:47:57;100624.88;;;11.17;64.22
19508;BME280;40157;42.566;27.526;2023-04-05T10:50:02;100662.84;;;11.45;64.44
19508;BME280;40157;42.566;27.526;2023-04-05T10:52:03;100662.94;;;11.53;64.39